Time;durP1;ratioP1;P1;durP2;ratioP2;P2;SDS_P1;SDS_P2;PMS_P1;PMS_P2;Temp;Humidity;BMP_temperature;BMP_pressure;BME280_temperature;BME280_humidity;BME280_pressure;Samples;Min_cycle;Max_cycle;Signal;HPM_P1;HPM_P2
2023/02/27 00:01:08;;;;;;;3.72;1.48;;;-0.90;99.90;;;;;;5082832;28;20044;-65
2023/02/27 00:03:33;;;;;;;7.55;1.70;;;-1.00;99.90;;;;;;5082508;28;20040;-65
2023/02/27 00:05:59;;;;;;;2.63;1.33;;;-0.90;99.90;;;;;;5076583;28;20406;-65
2023/02/27 00:08:25;;;;;;;5.50;1.20;;;-1.00;99.90;;;;;;5084343;28;20043;-65
2023/02/27 00:10:51;;;;;;;5.35;2.58;;;-0.90;99.90;;;;;;5082400;28;20032;-65
2023/02/27 00:13:17;;;;;;;4.22;1.83;;;-0.90;99.90;;;;;;5085419;28;20455;-65
2023/02/27 00:15:48;;;;;;;3.55;1.70;;;-1.10;99.90;;;;;;5078991;28;20036;-65
2023/02/27 00:18:14;;;;;;;3.58;1.60;;;-1.10;99.90;;;;;;5083824;28;20605;-65
2023/02/27 00:20:39;;;;;;;4.88;1.63;;;-1.10;99.90;;;;;;5065005;28;20131;-64
2023/02/27 00:23:06;;;;;;;4.13;1.70;;;-1.20;99.90;;;;;;5061048;28;20514;-65
2023/02/27 00:25:33;;;;;;;5.30;2.15;;;-1.20;99.90;;;;;;5080863;28;20101;-65
2023/02/27 00:27:59;;;;;;;6.43;1.77;;;-1.20;99.90;;;;;;5083485;28;20499;-65
2023/02/27 00:30:25;;;;;;;6.65;1.92;;;-1.20;99.90;;;;;;5079579;28;20039;-65
2023/02/27 00:32:52;;;;;;;6.95;2.10;;;-1.20;99.90;;;;;;5084652;28;20036;-65
2023/02/27 00:35:19;;;;;;;3.58;1.70;;;-1.20;99.90;;;;;;5083367;28;20040;-65
2023/02/27 00:37:45;;;;;;;5.57;1.42;;;-1.30;99.90;;;;;;5078756;28;20122;-65
2023/02/27 00:40:11;;;;;;;5.25;1.67;;;-1.30;99.90;;;;;;5082787;28;20176;-66
2023/02/27 00:42:37;;;;;;;6.07;2.28;;;-1.30;99.90;;;;;;5082636;28;20234;-65
2023/02/27 00:45:04;;;;;;;7.60;2.05;;;-1.20;99.90;;;;;;5085729;28;20058;-65
2023/02/27 00:47:30;;;;;;;5.60;2.10;;;-1.40;99.90;;;;;;5081797;28;20052;-66
2023/02/27 00:49:56;;;;;;;7.32;2.10;;;-1.40;99.90;;;;;;5081391;28;20044;-65
2023/02/27 00:52:21;;;;;;;5.10;1.70;;;-1.40;99.90;;;;;;5071285;28;20050;-65
2023/02/27 00:54:47;;;;;;;3.95;1.73;;;-1.40;99.90;;;;;;5063809;28;20044;-65
2023/02/27 00:57:13;;;;;;;4.63;2.00;;;-1.40;99.90;;;;;;5071056;28;20040;-65
2023/02/27 00:59:38;;;;;;;4.03;2.05;;;-1.40;99.90;;;;;;5077886;28;20519;-65
2023/02/27 01:02:04;;;;;;;5.43;1.83;;;-1.40;99.90;;;;;;5080273;28;20032;-65
2023/02/27 01:04:30;;;;;;;6.00;2.10;;;-1.50;99.90;;;;;;5081423;28;20429;-64
2023/02/27 01:06:56;;;;;;;5.03;1.92;;;-1.40;99.90;;;;;;5079964;28;20028;-64
2023/02/27 01:09:22;;;;;;;6.53;1.98;;;-1.40;99.90;;;;;;5079675;28;20037;-64
2023/02/27 01:11:49;;;;;;;5.18;2.45;;;-1.50;99.90;;;;;;5081269;28;20476;-64
2023/02/27 01:14:15;;;;;;;6.05;2.30;;;-1.40;99.90;;;;;;5080239;28;20108;-65
2023/02/27 01:16:41;;;;;;;6.13;3.05;;;-1.40;99.90;;;;;;5064065;28;20146;-65
2023/02/27 01:19:06;;;;;;;8.68;2.40;;;-1.50;99.90;;;;;;5078123;28;20071;-66
2023/02/27 01:21:32;;;;;;;6.25;2.30;;;-1.50;99.90;;;;;;5062749;28;20629;-66
2023/02/27 01:23:58;;;;;;;10.90;2.33;;;-1.50;99.90;;;;;;5085413;28;20408;-66
2023/02/27 01:26:24;;;;;;;7.18;2.38;;;-1.50;99.90;;;;;;5068986;28;20549;-66
2023/02/27 01:28:50;;;;;;;7.55;2.33;;;-1.50;99.90;;;;;;5065212;28;20048;-66
2023/02/27 01:31:15;;;;;;;9.25;2.03;;;-1.50;99.90;;;;;;5080266;28;20040;-66
2023/02/27 01:33:41;;;;;;;4.75;2.13;;;-1.50;99.90;;;;;;5084035;28;20039;-65
2023/02/27 01:36:07;;;;;;;7.60;2.60;;;-1.50;99.90;;;;;;5066833;28;20051;-65
2023/02/27 01:38:34;;;;;;;4.75;2.08;;;-1.50;99.90;;;;;;5081893;28;20036;-65
2023/02/27 01:40:59;;;;;;;6.85;2.20;;;-1.50;99.90;;;;;;5062251;28;20442;-66
2023/02/27 01:43:26;;;;;;;6.15;2.38;;;-1.60;99.90;;;;;;5085089;28;20338;-65
2023/02/27 01:45:52;;;;;;;8.70;2.08;;;-1.60;99.90;;;;;;5087213;28;20031;-65
2023/02/27 01:48:28;;;;;;;8.25;2.17;;;-1.60;99.90;;;;;;5080755;28;20040;-65
2023/02/27 01:51:08;;;;;;;6.85;1.83;;;-1.60;99.90;;;;;;5080882;28;20097;-65
2023/02/27 01:53:37;;;;;;;4.55;1.95;;;-1.70;99.90;;;;;;5085648;28;20047;-65
2023/02/27 01:56:15;;;;;;;4.53;1.95;;;-1.70;99.90;;;;;;5068477;28;20046;-67
2023/02/27 01:58:42;;;;;;;4.47;2.10;;;-1.70;99.90;;;;;;5056436;28;20105;-66
2023/02/27 02:01:07;;;;;;;5.03;2.38;;;-1.80;99.90;;;;;;5063455;28;20085;-63
2023/02/27 02:03:51;;;;;;;5.30;2.40;;;-1.70;99.90;;;;;;5087168;28;20645;-64
2023/02/27 02:06:17;;;;;;;8.60;2.33;;;-1.70;99.90;;;;;;5078037;28;20044;-65
2023/02/27 02:08:46;;;;;;;6.38;2.47;;;-1.80;99.90;;;;;;5065627;28;20131;-64
2023/02/27 02:11:15;;;;;;;6.47;2.20;;;-1.90;99.90;;;;;;5063850;28;20041;-64
2023/02/27 02:13:41;;;;;;;7.82;3.20;;;-1.80;99.90;;;;;;5064516;28;20485;-64
2023/02/27 02:16:29;;;;;;;5.00;2.50;;;-1.90;99.90;;;;;;5077357;28;20115;-65
2023/02/27 02:18:58;;;;;;;7.75;2.42;;;-1.90;99.90;;;;;;5077384;28;20051;-65
2023/02/27 02:21:27;;;;;;;8.38;3.28;;;-1.90;99.90;;;;;;5066505;28;20057;-66
2023/02/27 02:24:21;;;;;;;8.85;3.20;;;-2.00;99.90;;;;;;5081320;28;20079;-65
2023/02/27 02:27:07;;;;;;;6.50;2.88;;;-2.00;99.90;;;;;;5079760;28;20040;-65
2023/02/27 02:29:57;;;;;;;7.53;3.58;;;-2.00;99.90;;;;;;5071526;28;20048;-66
2023/02/27 02:32:42;;;;;;;5.47;2.67;;;-2.00;99.90;;;;;;5081002;28;20040;-65
2023/02/27 02:35:29;;;;;;;6.13;2.65;;;-2.00;99.90;;;;;;5086362;28;20483;-65
2023/02/27 02:38:14;;;;;;;5.80;2.70;;;-2.00;99.90;;;;;;5081948;28;20036;-64
2023/02/27 02:41:05;;;;;;;7.97;2.87;;;-2.00;99.90;;;;;;5084229;28;20055;-64
2023/02/27 02:43:42;;;;;;;5.82;3.10;;;-2.00;99.90;;;;;;5080433;28;20068;-64
2023/02/27 02:46:38;;;;;;;6.47;2.45;;;-2.00;99.90;;;;;;5080643;28;20048;-64
2023/02/27 02:49:14;;;;;;;7.88;2.88;;;-2.10;99.90;;;;;;5081871;28;20488;-65
2023/02/27 02:51:54;;;;;;;8.52;2.97;;;-2.10;99.90;;;;;;5062179;28;20040;-64
2023/02/27 02:54:32;;;;;;;6.05;2.90;;;-2.10;99.90;;;;;;5087874;28;20348;-64
2023/02/27 02:57:26;;;;;;;5.47;2.72;;;-2.10;99.90;;;;;;5068403;28;20036;-63
2023/02/27 03:00:07;;;;;;;7.22;2.35;;;-2.10;99.90;;;;;;5086306;28;20040;-64
2023/02/27 03:02:46;;;;;;;8.70;2.83;;;-2.10;99.90;;;;;;5075851;28;20638;-65
2023/02/27 03:05:19;;;;;;;6.97;3.03;;;-2.10;99.90;;;;;;5071523;28;20050;-65
2023/02/27 03:07:48;;;;;;;7.00;2.67;;;-2.10;99.90;;;;;;5083924;28;20376;-65
2023/02/27 03:10:28;;;;;;;9.80;3.22;;;-2.10;99.90;;;;;;5083800;28;20476;-65
2023/02/27 03:13:23;;;;;;;7.45;3.20;;;-2.10;99.90;;;;;;5082173;28;20037;-65
2023/02/27 03:16:14;;;;;;;7.05;3.92;;;-2.00;99.90;;;;;;5079180;28;20040;-65
2023/02/27 03:19:06;;;;;;;7.25;3.90;;;-2.00;99.90;;;;;;5087771;28;20055;-65
2023/02/27 03:21:46;;;;;;;8.68;3.97;;;-2.00;99.90;;;;;;5064978;28;20520;-65
2023/02/27 03:24:20;;;;;;;8.98;3.83;;;-2.00;99.90;;;;;;5060529;28;20052;-65
2023/02/27 03:26:48;;;;;;;8.82;4.20;;;-2.00;99.90;;;;;;5086007;28;20044;-65
2023/02/27 03:29:43;;;;;;;5.90;3.53;;;-2.10;99.90;;;;;;5068257;28;20044;-66
2023/02/27 03:32:15;;;;;;;;;;;-2.10;99.90;;;;;;5061698;28;20190;-65
2023/02/27 03:34:42;;;;;;;8.25;3.90;;;-2.10;99.90;;;;;;5084673;28;19924;-65
2023/02/27 03:37:21;;;;;;;6.80;3.08;;;-2.10;99.90;;;;;;5084010;28;20120;-65
2023/02/27 03:40:36;;;;;;;9.25;3.63;;;-2.20;99.90;;;;;;5084928;28;20569;-65
2023/02/27 03:43:26;;;;;;;10.03;4.17;;;-2.20;99.90;;;;;;5007175;28;20125;-65
2023/02/27 03:46:18;;;;;;;8.45;2.90;;;-2.20;99.90;;;;;;5083022;28;20301;-64
2023/02/27 03:48:45;;;;;;;5.70;2.88;;;-2.20;99.90;;;;;;5066836;28;20153;-65
2023/02/27 03:51:18;;;;;;;7.57;3.50;;;-2.20;99.90;;;;;;5077080;28;20066;-65
2023/02/27 03:54:04;;;;;;;8.32;3.08;;;-2.20;99.90;;;;;;5081099;28;20051;-65
2023/02/27 03:56:48;;;;;;;6.43;3.30;;;-2.20;99.90;;;;;;5071381;28;20075;-65
2023/02/27 03:59:14;;;;;;;8.65;3.38;;;-2.20;99.90;;;;;;5083829;28;20067;-66
2023/02/27 04:01:41;;;;;;;6.85;3.55;;;-2.30;99.90;;;;;;5080966;28;20411;-64
2023/02/27 04:04:13;;;;;;;7.75;3.70;;;-2.30;99.90;;;;;;5063938;28;20393;-66
2023/02/27 04:09:44;;;;;;;8.70;3.63;;;-2.30;99.90;;;;;;5074941;28;20106;-63
2023/02/27 04:12:31;;;;;;;5.70;3.00;;;-2.30;99.90;;;;;;5080898;28;20032;-64
2023/02/27 04:15:17;;;;;;;8.20;3.00;;;-2.40;99.90;;;;;;5082879;28;20369;-65
2023/02/27 04:18:14;;;;;;;8.48;3.13;;;-2.40;99.90;;;;;;5066269;28;20150;-65
2023/02/27 04:21:04;;;;;;;9.38;2.95;;;-2.40;99.90;;;;;;5064088;28;20051;-64
2023/02/27 04:23:47;;;;;;;6.30;2.92;;;-2.40;99.90;;;;;;5081505;28;20101;-66
2023/02/27 04:26:20;;;;;;;7.15;3.22;;;-2.50;99.90;;;;;;5049131;28;20097;-65
2023/02/27 04:29:03;;;;;;;8.52;3.03;;;-2.50;99.90;;;;;;5082326;28;20047;-65
2023/02/27 04:31:58;;;;;;;6.45;3.00;;;-2.50;99.90;;;;;;5071612;28;20059;-65
2023/02/27 04:34:41;;;;;;;7.30;2.83;;;-2.50;99.90;;;;;;5051223;28;20604;-64
2023/02/27 04:37:32;;;;;;;6.10;3.08;;;-2.50;99.90;;;;;;5064969;28;20491;-64
2023/02/27 04:40:31;;;;;;;5.78;3.22;;;-2.60;99.90;;;;;;5076974;28;20048;-64
2023/02/27 04:42:59;;;;;;;7.35;3.20;;;-2.60;99.90;;;;;;5080879;28;20515;-64
2023/02/27 04:45:31;;;;;;;7.55;3.22;;;-2.60;99.90;;;;;;5082954;28;20044;-65
2023/02/27 04:48:17;;;;;;;8.00;2.90;;;-2.60;99.90;;;;;;5084846;28;20031;-64
2023/02/27 04:51:09;;;;;;;6.45;3.42;;;-2.60;99.90;;;;;;5082049;28;20152;-65
2023/02/27 04:53:57;;;;;;;5.65;2.97;;;-2.70;99.90;;;;;;5082104;28;20032;-65
2023/02/27 04:56:52;;;;;;;6.13;2.55;;;-2.70;99.90;;;;;;5082313;28;20462;-65
2023/02/27 04:59:31;;;;;;;5.40;2.88;;;-2.70;99.90;;;;;;5076468;28;20044;-65
2023/02/27 05:02:09;;;;;;;6.35;2.90;;;-2.70;99.90;;;;;;5083957;28;20076;-64
2023/02/27 05:04:39;;;;;;;6.03;3.15;;;-2.80;99.90;;;;;;5081040;28;20453;-64
2023/02/27 05:07:08;;;;;;;5.38;2.60;;;-2.80;99.90;;;;;;5065060;28;20052;-64
2023/02/27 05:09:42;;;;;;;6.30;2.55;;;-2.80;99.90;;;;;;5060120;28;20579;-64
2023/02/27 05:12:20;;;;;;;6.78;3.05;;;-2.80;99.90;;;;;;5065664;28;20040;-64
2023/02/27 05:15:27;;;;;;;6.55;3.08;;;-2.80;99.90;;;;;;5078969;28;20040;-63
2023/02/27 05:17:59;;;;;;;7.30;3.28;;;-2.80;99.90;;;;;;5070006;28;20114;-63
2023/02/27 05:20:50;;;;;;;7.63;3.45;;;-2.90;99.90;;;;;;5080184;28;20076;-64
2023/02/27 05:23:26;;;;;;;5.07;2.80;;;-2.80;99.90;;;;;;5068241;28;20040;-64
2023/02/27 05:26:05;;;;;;;7.43;3.50;;;-2.90;99.90;;;;;;5060769;28;20055;-64
2023/02/27 05:28:58;;;;;;;7.07;3.17;;;-2.90;99.90;;;;;;5081096;28;20104;-64
2023/02/27 05:31:40;;;;;;;5.10;2.65;;;-3.00;99.90;;;;;;5082595;28;20089;-64
2023/02/27 05:34:12;;;;;;;7.43;2.95;;;-3.00;99.90;;;;;;5079447;28;20079;-65
2023/02/27 05:37:29;;;;;;;9.13;2.90;;;-3.00;99.90;;;;;;5081690;28;20060;-65
2023/02/27 05:39:57;;;;;;;5.05;3.05;;;-3.00;99.90;;;;;;5036617;28;20136;-65
2023/02/27 05:42:33;;;;;;;9.82;3.05;;;-3.00;99.90;;;;;;5089403;28;20055;-65
2023/02/27 05:45:06;;;;;;;8.77;2.55;;;-3.00;99.90;;;;;;5065452;28;20043;-64
2023/02/27 05:47:35;;;;;;;6.35;3.45;;;-3.00;99.90;;;;;;5083828;28;20039;-64
2023/02/27 05:50:10;;;;;;;6.75;2.88;;;-3.10;99.90;;;;;;5065707;28;20484;-65
2023/02/27 05:52:39;;;;;;;6.40;2.72;;;-3.10;99.90;;;;;;5083720;28;20093;-64
2023/02/27 05:55:17;;;;;;;6.53;2.97;;;-3.10;99.90;;;;;;5046669;28;20045;-64
2023/02/27 05:58:05;;;;;;;8.70;3.42;;;-3.10;99.90;;;;;;5085258;28;20040;-65
2023/02/27 06:00:38;;;;;;;7.40;2.80;;;-3.10;99.90;;;;;;5089092;28;20036;-64
2023/02/27 06:03:04;;;;;;;5.50;3.20;;;-3.10;99.90;;;;;;5090366;28;20047;-64
2023/02/27 06:05:30;;;;;;;7.68;3.03;;;-3.20;99.90;;;;;;5088203;28;20063;-64
2023/02/27 06:07:56;;;;;;;6.30;2.97;;;-3.10;99.90;;;;;;5088749;28;20047;-64
2023/02/27 06:10:22;;;;;;;3.97;3.15;;;-3.10;99.90;;;;;;5065179;28;20508;-65
2023/02/27 06:12:48;;;;;;;6.75;2.80;;;-3.10;99.90;;;;;;5088945;28;20052;-64
2023/02/27 06:15:14;;;;;;;7.10;2.63;;;-3.10;99.90;;;;;;5087048;28;20038;-64
2023/02/27 06:17:39;;;;;;;11.35;3.00;;;-3.10;99.90;;;;;;5088236;28;20040;-63
2023/02/27 06:20:06;;;;;;;6.00;2.88;;;-3.10;99.90;;;;;;5070629;28;20499;-64
2023/02/27 06:22:32;;;;;;;5.20;2.88;;;-3.10;99.90;;;;;;5089669;28;20052;-63
2023/02/27 06:24:58;;;;;;;10.63;3.85;;;-3.10;99.90;;;;;;5086162;28;20097;-63
2023/02/27 06:27:25;;;;;;;7.28;3.00;;;-3.10;99.90;;;;;;5090773;28;20400;-64
2023/02/27 06:29:52;;;;;;;10.15;2.75;;;-3.20;99.90;;;;;;5089467;28;20036;-63
2023/02/27 06:32:19;;;;;;;5.93;2.65;;;-3.20;99.90;;;;;;5083356;28;20450;-63
2023/02/27 06:34:45;;;;;;;7.55;3.42;;;-3.20;99.90;;;;;;5076587;28;20036;-65
2023/02/27 06:37:10;;;;;;;4.45;3.00;;;-3.20;99.90;;;;;;5064140;28;20041;-64
2023/02/27 06:39:36;;;;;;;5.47;3.10;;;-3.20;99.90;;;;;;5087636;28;20628;-65
2023/02/27 06:42:02;;;;;;;5.20;2.67;;;-3.20;99.90;;;;;;5090038;28;20049;-65
2023/02/27 06:44:28;;;;;;;8.05;3.97;;;-3.20;99.90;;;;;;5076716;28;20055;-65
2023/02/27 06:46:54;;;;;;;6.78;2.90;;;-3.20;99.90;;;;;;5090458;28;20032;-65
2023/02/27 06:49:20;;;;;;;5.97;2.97;;;-3.20;99.90;;;;;;5089215;28;20055;-65
2023/02/27 06:51:46;;;;;;;8.45;2.92;;;-3.20;99.90;;;;;;5087911;28;20043;-65
2023/02/27 06:54:11;;;;;;;7.32;2.70;;;-3.20;99.90;;;;;;5078169;28;20490;-65
2023/02/27 06:56:37;;;;;;;6.20;2.78;;;-3.20;99.90;;;;;;5089383;28;20047;-65
2023/02/27 06:59:03;;;;;;;5.28;2.83;;;-3.10;99.90;;;;;;5072234;28;20047;-65
2023/02/27 07:01:29;;;;;;;6.93;3.13;;;-3.10;99.90;;;;;;5077908;28;20484;-65
2023/02/27 07:03:54;;;;;;;7.57;3.03;;;-3.00;99.90;;;;;;5084090;28;20231;-65
2023/02/27 07:06:20;;;;;;;6.65;2.92;;;-3.00;99.90;;;;;;5086149;28;20036;-64
2023/02/27 07:08:46;;;;;;;7.32;3.22;;;-2.90;99.90;;;;;;5085912;28;20051;-65
2023/02/27 07:11:11;;;;;;;5.28;3.30;;;-2.90;99.90;;;;;;5083715;28;20108;-65
2023/02/27 07:13:37;;;;;;;6.85;3.17;;;-2.70;99.90;;;;;;5074697;28;20044;-65
2023/02/27 07:16:03;;;;;;;8.80;3.30;;;-2.70;99.90;;;;;;5086463;28;20503;-65
2023/02/27 07:18:29;;;;;;;8.52;3.13;;;-2.60;99.90;;;;;;5082791;28;20063;-64
2023/02/27 07:20:55;;;;;;;9.65;3.92;;;-2.50;99.90;;;;;;5083617;28;20063;-65
2023/02/27 07:23:22;;;;;;;9.02;4.05;;;-2.40;99.90;;;;;;5086241;28;20032;-66
2023/02/27 07:25:47;;;;;;;10.32;3.80;;;-2.40;99.90;;;;;;5087008;28;20054;-64
2023/02/27 07:28:14;;;;;;;5.97;3.47;;;-2.30;99.90;;;;;;5087953;28;20124;-65
2023/02/27 07:30:40;;;;;;;6.82;3.25;;;-2.20;99.90;;;;;;5082465;28;20040;-65
2023/02/27 07:33:06;;;;;;;11.23;4.05;;;-2.10;99.90;;;;;;5084819;28;20101;-65
2023/02/27 07:35:32;;;;;;;6.88;3.38;;;-2.00;99.90;;;;;;5089060;28;20059;-66
2023/02/27 07:37:58;;;;;;;7.75;3.58;;;-1.90;99.90;;;;;;5073811;28;20087;-66
2023/02/27 07:40:24;;;;;;;11.40;4.30;;;-1.70;99.90;;;;;;5085844;28;20395;-66
2023/02/27 07:42:49;;;;;;;7.35;3.75;;;-1.60;99.90;;;;;;5067615;28;20060;-66
2023/02/27 07:45:18;;;;;;;10.73;3.92;;;-1.40;99.90;;;;;;5087420;28;20032;-66
2023/02/27 07:47:45;;;;;;;9.25;3.70;;;-1.30;99.90;;;;;;5085038;28;20055;-66
2023/02/27 07:50:12;;;;;;;7.20;3.65;;;-1.20;99.90;;;;;;5071809;28;20044;-66
2023/02/27 07:52:44;;;;;;;6.43;3.60;;;-1.00;99.90;;;;;;5086527;28;20036;-66
2023/02/27 07:55:12;;;;;;;6.75;3.50;;;-0.90;99.90;;;;;;5087540;28;20044;-66
2023/02/27 07:57:38;;;;;;;8.63;3.10;;;-0.80;99.90;;;;;;5087861;28;20051;-66
2023/02/27 08:00:06;;;;;;;9.38;3.97;;;-0.70;99.90;;;;;;5082925;28;20040;-66
2023/02/27 08:02:32;;;;;;;6.22;3.45;;;-0.60;99.90;;;;;;5083807;28;20044;-66
2023/02/27 08:04:58;;;;;;;7.93;3.47;;;-0.50;99.90;;;;;;5079843;28;20055;-66
2023/02/27 08:07:24;;;;;;;9.02;3.65;;;-0.40;99.90;;;;;;5081841;28;20048;-66
2023/02/27 08:09:50;;;;;;;8.48;3.70;;;-0.30;99.90;;;;;;5079629;28;20087;-66
2023/02/27 08:12:16;;;;;;;9.60;3.45;;;-0.20;99.90;;;;;;5063198;28;20087;-66
2023/02/27 08:14:41;;;;;;;9.20;3.63;;;-0.10;99.90;;;;;;5085796;28;20035;-66
2023/02/27 08:17:08;;;;;;;8.73;3.30;;;0.00;99.90;;;;;;5072921;28;20063;-66
2023/02/27 08:19:34;;;;;;;6.68;3.38;;;0.00;99.90;;;;;;5080134;28;20151;-66
2023/02/27 08:21:59;;;;;;;9.43;3.67;;;0.10;99.90;;;;;;5084688;28;20181;-65
2023/02/27 08:24:27;;;;;;;13.30;4.70;;;0.20;99.90;;;;;;5082433;28;20036;-66
2023/02/27 08:26:52;;;;;;;13.88;5.93;;;0.30;99.90;;;;;;5067947;28;20040;-66
2023/02/27 08:29:18;;;;;;;23.08;11.93;;;0.50;99.90;;;;;;5082588;28;20044;-65
2023/02/27 08:31:45;;;;;;;23.02;11.90;;;0.60;99.90;;;;;;5083304;28;20085;-66
2023/02/27 08:34:11;;;;;;;24.30;11.73;;;0.70;99.90;;;;;;5079547;28;20042;-66
2023/02/27 08:36:38;;;;;;;25.00;13.13;;;0.80;99.90;;;;;;5082809;28;20568;-66
2023/02/27 08:39:05;;;;;;;21.05;12.20;;;0.90;99.90;;;;;;5062998;28;20070;-65
2023/02/27 08:41:31;;;;;;;23.02;11.55;;;1.00;99.90;;;;;;5082672;28;20421;-65
2023/02/27 08:43:57;;;;;;;21.42;10.80;;;1.20;99.90;;;;;;5082769;28;20131;-66
2023/02/27 08:46:22;;;;;;;11.85;6.30;;;1.30;99.90;;;;;;5078702;28;20640;-66
2023/02/27 08:48:48;;;;;;;12.85;6.15;;;1.40;99.90;;;;;;5081919;28;20040;-66
2023/02/27 08:51:14;;;;;;;9.52;4.10;;;1.60;99.90;;;;;;5082473;28;20047;-66
2023/02/27 08:53:39;;;;;;;8.95;3.70;;;1.70;99.90;;;;;;5081605;28;20032;-66
2023/02/27 08:56:05;;;;;;;6.88;3.00;;;1.90;99.90;;;;;;5074107;28;20036;-66
2023/02/27 08:58:31;;;;;;;8.75;3.72;;;2.10;99.90;;;;;;5083119;28;20059;-65
2023/02/27 09:00:57;;;;;;;10.02;3.58;;;2.30;99.90;;;;;;5082856;28;20032;-67
2023/02/27 09:03:27;;;;;;;11.40;4.18;;;2.70;99.90;;;;;;5083685;28;20024;-65
2023/02/27 09:05:53;;;;;;;9.85;3.03;;;3.00;99.90;;;;;;5082630;28;20223;-65
2023/02/27 09:08:20;;;;;;;11.40;3.17;;;3.40;99.90;;;;;;5077150;28;20127;-65
2023/02/27 09:10:45;;;;;;;9.50;3.10;;;3.70;99.90;;;;;;5083662;28;20529;-65
2023/02/27 09:13:11;;;;;;;12.63;2.78;;;4.10;99.90;;;;;;5085540;28;20130;-65
2023/02/27 09:15:37;;;;;;;6.10;2.92;;;4.50;99.90;;;;;;5081483;28;20093;-65
2023/02/27 09:18:05;;;;;;;10.02;3.00;;;4.70;99.90;;;;;;5081335;28;20040;-65
2023/02/27 09:20:36;;;;;;;7.18;2.72;;;4.70;99.90;;;;;;5088520;28;20118;-66
2023/02/27 09:23:03;;;;;;;6.72;2.40;;;4.70;99.90;;;;;;5088758;28;20047;-66
2023/02/27 09:25:28;;;;;;;7.15;2.42;;;4.70;99.90;;;;;;5081667;28;20032;-66
2023/02/27 09:27:55;;;;;;;9.40;3.15;;;4.80;99.90;;;;;;5084702;28;20036;-66
2023/02/27 09:30:21;;;;;;;8.75;3.33;;;4.90;99.90;;;;;;5087327;28;20458;-66
2023/02/27 09:32:47;;;;;;;7.80;2.50;;;4.90;99.90;;;;;;5082726;28;20039;-66
2023/02/27 09:35:15;;;;;;;9.35;2.88;;;4.90;99.90;;;;;;5076484;28;20399;-66
2023/02/27 09:37:44;;;;;;;10.32;3.00;;;4.90;99.90;;;;;;5082969;28;20058;-66
2023/02/27 09:40:22;;;;;;;6.80;2.72;;;5.10;99.90;;;;;;5069732;28;20475;-66
2023/02/27 09:42:49;;;;;;;10.32;3.42;;;5.10;99.90;;;;;;5083459;28;20044;-66
2023/02/27 09:45:29;;;;;;;8.52;2.88;;;5.20;99.90;;;;;;5081116;28;20384;-66
2023/02/27 09:48:05;;;;;;;10.48;2.70;;;5.30;99.90;;;;;;5088048;28;20040;-66
2023/02/27 09:50:41;;;;;;;10.10;2.58;;;5.50;99.90;;;;;;5086022;28;20045;-66
2023/02/27 09:53:20;;;;;;;10.27;2.85;;;5.60;99.90;;;;;;5084028;28;20117;-66
2023/02/27 09:55:47;;;;;;;6.40;2.20;;;5.70;99.90;;;;;;5083331;28;20033;-66
2023/02/27 09:58:25;;;;;;;9.05;2.30;;;6.10;99.90;;;;;;5085195;28;20032;-67
2023/02/27 10:00:57;;;;;;;4.57;1.80;;;6.30;99.90;;;;;;5088588;28;20047;-65
2023/02/27 10:03:45;;;;;;;8.35;2.58;;;7.00;99.90;;;;;;5081099;28;20041;-65
2023/02/27 10:06:30;;;;;;;5.00;1.65;;;7.70;99.90;;;;;;5085411;28;20036;-65
2023/02/27 10:09:21;;;;;;;8.10;1.77;;;8.90;99.90;;;;;;5084041;28;20041;-64
2023/02/27 10:11:56;;;;;;;6.43;1.67;;;9.80;99.90;;;;;;5086929;28;20043;-64
2023/02/27 10:14:37;;;;;;;8.57;2.25;;;10.30;99.90;;;;;;5079471;28;20033;-65
2023/02/27 10:17:11;;;;;;;5.20;1.40;;;10.20;99.90;;;;;;5085562;28;20035;-65
2023/02/27 10:19:38;;;;;;;7.97;1.75;;;10.80;99.90;;;;;;5061865;28;20510;-65
2023/02/27 10:22:08;;;;;;;6.90;1.30;;;11.30;99.90;;;;;;5070766;28;20096;-65
2023/02/27 10:24:43;;;;;;;8.18;1.20;;;11.70;99.90;;;;;;5080761;28;20040;-65
2023/02/27 10:27:17;;;;;;;5.40;1.23;;;12.00;99.90;;;;;;5086528;28;20074;-65
2023/02/27 10:29:44;;;;;;;2.60;0.90;;;11.80;99.90;;;;;;5088676;28;20032;-65
2023/02/27 10:32:30;;;;;;;6.05;1.40;;;11.80;99.90;;;;;;5080852;28;20036;-66
2023/02/27 10:35:34;;;;;;;5.63;1.10;;;11.50;99.90;;;;;;5079376;28;20036;-65
2023/02/27 10:38:05;;;;;;;3.20;0.98;;;11.90;99.90;;;;;;5087477;28;20170;-66
2023/02/27 10:40:35;;;;;;;8.07;1.40;;;12.20;99.90;;;;;;5077562;28;20460;-66
2023/02/27 10:43:02;;;;;;;3.92;0.95;;;12.20;99.90;;;;;;5071718;28;20051;-67
2023/02/27 10:45:28;;;;;;;4.07;0.75;;;12.50;99.90;;;;;;5084980;28;20831;-65
2023/02/27 10:47:54;;;;;;;4.07;0.95;;;12.30;98.10;;;;;;5064940;28;20047;-65
2023/02/27 10:50:23;;;;;;;5.93;0.90;;;12.30;98.70;;;;;;5069066;28;20140;-66
2023/02/27 10:52:51;;;;;;;4.75;1.23;;;12.50;96.30;;;;;;5078257;28;20107;-67
2023/02/27 10:55:22;;;;;;;4.93;0.82;;;12.80;97.00;;;;;;5086397;28;20089;-67
2023/02/27 10:57:48;;;;;;;6.05;0.80;;;13.20;95.40;;;;;;5082291;28;20045;-68
2023/02/27 11:00:30;;;;;;;4.10;1.02;;;13.20;95.80;;;;;;5076670;28;20377;-67
2023/02/27 11:02:56;;;;;;;4.30;0.52;;;13.40;94.00;;;;;;5082206;28;20048;-67
2023/02/27 11:05:33;;;;;;;3.75;0.50;;;13.40;94.60;;;;;;5081995;28;20230;-67
2023/02/27 11:08:20;;;;;;;1.90;0.47;;;13.30;92.50;;;;;;5085764;28;20043;-67
2023/02/27 11:10:58;;;;;;;2.30;0.40;;;13.20;89.10;;;;;;5083841;28;20056;-67
2023/02/27 11:13:26;;;;;;;2.10;0.52;;;13.40;89.80;;;;;;5085047;28;20040;-67
2023/02/27 11:16:12;;;;;;;1.73;0.55;;;13.40;90.20;;;;;;5084188;28;20113;-67
2023/02/27 11:18:40;;;;;;;3.13;0.70;;;12.50;84.80;;;;;;5085460;28;20048;-67
2023/02/27 11:21:21;;;;;;;3.75;0.60;;;12.00;88.40;;;;;;5070315;28;20507;-67
2023/02/27 11:24:16;;;;;;;3.00;0.70;;;11.50;90.00;;;;;;5084281;28;20040;-67
2023/02/27 11:26:53;;;;;;;;;;;11.30;91.10;;;;;;5085874;28;20476;-67
2023/02/27 11:29:19;;;;;;;1.95;0.47;;;11.50;90.40;;;;;;5077801;28;20002;-67
2023/02/27 11:31:49;;;;;;;1.23;0.20;;;11.80;89.50;;;;;;5066669;28;20392;-66
2023/02/27 11:34:23;;;;;;;1.63;0.40;;;11.70;85.30;;;;;;5079742;28;20044;-67
2023/02/27 11:36:53;;;;;;;2.03;0.30;;;11.60;85.40;;;;;;5079818;28;20480;-67
2023/02/27 11:39:32;;;;;;;2.80;0.50;;;11.80;87.80;;;;;;5082359;28;20043;-67
2023/02/27 11:42:08;;;;;;;2.50;0.60;;;11.30;86.10;;;;;;5084015;28;20044;-66
2023/02/27 11:44:35;;;;;;;3.58;0.52;;;10.40;87.80;;;;;;5084006;28;20043;-67
2023/02/27 11:47:14;;;;;;;1.88;0.40;;;9.80;90.30;;;;;;5074262;28;20049;-65
2023/02/27 11:49:50;;;;;;;2.58;0.68;;;9.30;91.30;;;;;;5086310;28;20071;-65
2023/02/27 11:52:45;;;;;;;4.07;0.60;;;8.90;91.70;;;;;;5084128;28;20256;-64
2023/02/27 11:55:18;;;;;;;3.88;0.77;;;8.80;92.80;;;;;;5073679;28;20040;-65
2023/02/27 11:57:49;;;;;;;2.15;0.40;;;8.70;93.50;;;;;;5062220;28;20429;-64
2023/02/27 12:00:38;;;;;;;3.15;0.47;;;8.80;93.60;;;;;;5082497;28;20060;-65
2023/02/27 12:03:39;;;;;;;1.88;0.43;;;8.80;92.60;;;;;;5083090;28;20041;-66
2023/02/27 12:06:15;;;;;;;3.17;0.65;;;8.70;92.10;;;;;;5081922;28;20052;-66
2023/02/27 12:08:53;;;;;;;2.97;0.90;;;8.20;91.90;;;;;;5086519;28;20111;-66
2023/02/27 12:11:36;;;;;;;2.92;0.22;;;7.80;92.50;;;;;;5067963;28;21460;-66
2023/02/27 12:14:16;;;;;;;2.60;0.50;;;7.50;92.40;;;;;;5083818;28;20040;-65
2023/02/27 12:16:52;;;;;;;1.58;0.50;;;7.30;92.80;;;;;;5083957;28;20456;-65
2023/02/27 12:19:21;;;;;;;0.82;0.30;;;7.30;93.60;;;;;;5063118;28;20040;-66
2023/02/27 12:21:52;;;;;;;1.92;0.32;;;7.20;93.80;;;;;;5070028;28;20119;-66
2023/02/27 12:24:27;;;;;;;4.32;0.50;;;7.10;94.20;;;;;;5084779;28;20443;-65
2023/02/27 12:27:24;;;;;;;2.22;0.60;;;7.10;94.20;;;;;;5079326;28;20036;-65
2023/02/27 12:29:54;;;;;;;2.72;0.52;;;7.10;94.90;;;;;;5062582;28;20510;-66
2023/02/27 12:32:29;;;;;;;2.22;0.47;;;7.20;95.30;;;;;;5074549;28;20036;-66
2023/02/27 12:35:18;;;;;;;2.65;0.68;;;7.70;95.10;;;;;;5081756;28;20161;-66
2023/02/27 12:37:44;;;;;;;2.20;0.70;;;8.60;94.00;;;;;;5082970;28;20035;-65
2023/02/27 12:40:17;;;;;;;1.10;0.30;;;9.50;93.60;;;;;;5077299;28;20039;-67
2023/02/27 12:42:52;;;;;;;1.98;0.40;;;9.90;92.70;;;;;;5083717;28;20035;-65
2023/02/27 12:45:20;;;;;;;2.42;0.50;;;10.30;92.60;;;;;;5083250;28;20048;-66
2023/02/27 12:48:00;;;;;;;1.95;0.50;;;10.50;91.40;;;;;;5081151;28;20035;-65
2023/02/27 12:50:50;;;;;;;1.80;0.30;;;9.90;92.00;;;;;;5078554;28;20082;-65
2023/02/27 12:53:37;;;;;;;2.47;0.35;;;9.20;92.40;;;;;;5083801;28;20463;-65
2023/02/27 12:56:10;;;;;;;1.17;0.30;;;8.70;92.80;;;;;;5084723;28;20557;-65
2023/02/27 12:59:22;;;;;;;2.28;0.43;;;8.40;93.70;;;;;;5081582;28;20043;-65
2023/02/27 13:01:58;;;;;;;1.75;0.40;;;8.10;93.60;;;;;;5081552;28;20040;-65
2023/02/27 13:04:27;;;;;;;2.75;1.20;;;7.80;94.60;;;;;;5083663;28;20036;-65
2023/02/27 13:07:03;;;;;;;2.45;0.90;;;7.50;94.60;;;;;;5083918;28;20040;-66
2023/02/27 13:09:45;;;;;;;5.70;1.42;;;7.40;95.20;;;;;;5081589;28;20078;-66
2023/02/27 13:12:30;;;;;;;3.00;0.80;;;7.30;95.30;;;;;;5069044;28;20036;-66
2023/02/27 13:15:04;;;;;;;2.78;0.90;;;7.20;95.70;;;;;;5077487;28;20044;-66
2023/02/27 13:17:50;;;;;;;3.50;1.20;;;7.30;96.70;;;;;;5069039;28;20043;-66
2023/02/27 13:20:33;;;;;;;4.97;2.83;;;7.90;96.10;;;;;;5065175;28;20043;-66
2023/02/27 13:23:20;;;;;;;2.58;0.70;;;8.30;94.80;;;;;;5081154;28;20044;-66